createdAt,value
2017-05-09T00:02:14.245Z,8.70
2017-05-09T00:04:42.659Z,12.14
2017-05-09T00:07:10.948Z,11.80
2017-05-09T00:09:38.757Z,9.87
2017-05-09T00:12:06.551Z,9.90
2017-05-09T00:14:34.417Z,10.20
2017-05-09T00:17:02.377Z,10.73
2017-05-09T00:19:29.952Z,8.35
2017-05-09T00:21:57.499Z,13.82
2017-05-09T00:24:25.058Z,13.63
2017-05-09T00:26:52.896Z,13.33
2017-05-09T00:29:20.420Z,14.70
2017-05-09T00:31:47.960Z,17.17
2017-05-09T00:34:15.625Z,15.02
2017-05-09T00:36:43.124Z,17.95
2017-05-09T00:39:11.416Z,14.72
2017-05-09T00:41:38.926Z,15.15
2017-05-09T00:44:06.473Z,17.67
2017-05-09T00:46:33.976Z,19.63
2017-05-09T00:49:01.558Z,15.20
2017-05-09T00:51:30.666Z,15.38
2017-05-09T00:53:59.440Z,15.02
2017-05-09T00:56:26.942Z,17.32
2017-05-09T00:58:54.828Z,13.10
2017-05-09T01:01:22.492Z,17.00
2017-05-09T01:03:50.351Z,10.42
2017-05-09T01:06:18.616Z,11.97
2017-05-09T01:08:46.385Z,15.07
2017-05-09T01:11:13.908Z,11.70
2017-05-09T01:13:41.412Z,12.88
2017-05-09T01:16:09.306Z,15.30
2017-05-09T01:18:37.153Z,15.07
2017-05-09T01:21:04.697Z,14.27
2017-05-09T01:23:32.229Z,15.67
2017-05-09T01:26:00.828Z,16.12
2017-05-09T01:28:30.240Z,12.98
2017-05-09T01:30:59.590Z,10.02
2017-05-09T01:33:27.909Z,11.68
2017-05-09T01:35:56.229Z,13.32
2017-05-09T01:38:24.493Z,13.08
2017-05-09T01:40:52.103Z,12.87
2017-05-09T01:43:19.682Z,17.62
2017-05-09T01:45:47.968Z,13.62
2017-05-09T01:48:17.216Z,13.25
2017-05-09T01:50:45.552Z,12.38
2017-05-09T01:53:13.093Z,12.38
2017-05-09T01:55:41.487Z,13.48
2017-05-09T01:58:10.575Z,11.56
2017-05-09T02:00:38.856Z,9.63
2017-05-09T02:03:07.149Z,8.10
2017-05-09T02:05:35.504Z,10.03
2017-05-09T02:08:03.040Z,9.40
2017-05-09T02:10:31.367Z,11.25
2017-05-09T02:12:59.936Z,9.95
2017-05-09T02:15:28.255Z,8.42
2017-05-09T02:17:55.804Z,8.22
2017-05-09T02:20:23.548Z,8.47
2017-05-09T02:22:52.064Z,8.18
2017-05-09T02:25:19.935Z,12.82
2017-05-09T02:27:47.466Z,10.57
2017-05-09T02:30:14.994Z,14.02
2017-05-09T02:32:43.277Z,9.08
2017-05-09T02:35:11.640Z,10.45
2017-05-09T02:37:39.944Z,12.30
2017-05-09T02:40:07.464Z,15.10
2017-05-09T02:42:34.983Z,10.58
2017-05-09T02:45:03.243Z,11.95
2017-05-09T02:47:31.599Z,9.98
2017-05-09T02:50:00.091Z,11.45
2017-05-09T02:52:27.643Z,11.83
2017-05-09T02:54:55.908Z,8.10
2017-05-09T02:57:24.233Z,8.93
2017-05-09T02:59:51.731Z,9.25
2017-05-09T03:02:20.114Z,7.65
2017-05-09T03:04:48.396Z,10.40
2017-05-09T03:07:16.177Z,11.07
2017-05-09T03:09:44.432Z,9.67
2017-05-09T03:12:12.752Z,10.07
2017-05-09T03:14:40.247Z,10.82
2017-05-09T03:17:08.545Z,9.47
2017-05-09T03:19:36.812Z,10.40
2017-05-09T03:22:05.106Z,8.92
2017-05-09T03:24:33.395Z,9.67
2017-05-09T03:27:01.237Z,8.70
2017-05-09T03:29:28.756Z,8.68
2017-05-09T03:31:57.392Z,8.08
2017-05-09T03:34:24.904Z,11.55
2017-05-09T03:36:53.197Z,10.65
2017-05-09T03:39:20.717Z,8.97
2017-05-09T03:41:53.166Z,10.65
2017-05-09T03:44:20.858Z,10.35
2017-05-09T03:46:48.407Z,11.87
2017-05-09T03:49:17.791Z,12.22
2017-05-09T03:51:45.436Z,12.62
2017-05-09T03:54:13.872Z,16.08
2017-05-09T03:56:42.139Z,11.17
2017-05-09T03:59:10.495Z,13.53
2017-05-09T04:01:38.718Z,10.15
2017-05-09T04:04:06.278Z,14.25
2017-05-09T04:06:34.776Z,14.18
2017-05-09T04:09:03.205Z,17.93
2017-05-09T04:11:31.536Z,16.83
2017-05-09T04:13:59.059Z,15.63
2017-05-09T04:16:27.645Z,16.83
2017-05-09T04:18:55.431Z,15.17
2017-05-09T04:21:22.984Z,16.80
2017-05-09T04:23:50.518Z,18.00
2017-05-09T04:26:18.254Z,16.38
2017-05-09T04:28:45.839Z,15.98
2017-05-09T04:31:13.732Z,17.97
2017-05-09T04:33:41.435Z,15.82
2017-05-09T04:36:09.735Z,15.75
2017-05-09T04:38:38.056Z,14.32
2017-05-09T04:41:05.631Z,17.83
2017-05-09T04:43:33.466Z,19.12
2017-05-09T04:46:01.742Z,23.42
2017-05-09T04:48:29.303Z,18.30
2017-05-09T04:50:57.616Z,17.98
2017-05-09T04:53:25.928Z,16.83
2017-05-09T04:55:54.342Z,18.63
2017-05-09T04:58:22.794Z,14.57
2017-05-09T05:00:51.134Z,17.77
2017-05-09T05:03:18.707Z,16.60
2017-05-09T05:05:46.419Z,14.60
2017-05-09T05:08:14.218Z,15.65
2017-05-09T05:10:42.786Z,12.27
2017-05-09T05:13:10.559Z,15.67
2017-05-09T05:15:38.915Z,17.03
2017-05-09T05:18:07.979Z,13.65
2017-05-09T05:20:36.272Z,12.60
2017-05-09T05:23:03.788Z,11.45
2017-05-09T05:25:32.071Z,8.15
2017-05-09T05:27:59.664Z,9.40
2017-05-09T05:30:27.176Z,13.35
2017-05-09T05:32:54.669Z,8.48
2017-05-09T05:35:23.044Z,10.13
2017-05-09T05:37:50.907Z,12.03
2017-05-09T05:40:18.945Z,8.92
2017-05-09T05:42:47.252Z,10.12
2017-05-09T05:45:15.848Z,5.85
2017-05-09T05:47:43.331Z,8.52
2017-05-09T05:50:11.955Z,6.23
2017-05-09T05:52:39.605Z,5.53
2017-05-09T05:55:07.169Z,5.48
2017-05-09T05:57:35.039Z,5.48
2017-05-09T06:00:03.426Z,5.03
2017-05-09T06:02:31.043Z,5.77
2017-05-09T06:04:58.632Z,5.30
2017-05-09T06:07:26.660Z,5.62
2017-05-09T06:09:54.979Z,5.08
2017-05-09T06:12:22.626Z,3.72
2017-05-09T06:14:51.388Z,4.55
2017-05-09T06:17:19.673Z,3.50
2017-05-09T06:19:47.194Z,6.12
2017-05-09T06:22:14.797Z,3.40
2017-05-09T06:24:43.348Z,3.87
2017-05-09T06:27:10.915Z,4.43
2017-05-09T06:29:38.451Z,4.13
2017-05-09T06:32:06.060Z,5.37
2017-05-09T06:34:34.340Z,5.27
2017-05-09T06:37:03.095Z,4.98
2017-05-09T06:39:31.491Z,6.97
2017-05-09T06:41:59.399Z,5.38
2017-05-09T06:44:27.023Z,4.12
2017-05-09T06:46:54.596Z,4.85
2017-05-09T06:49:22.124Z,4.13
2017-05-09T06:51:50.042Z,4.60
2017-05-09T06:54:17.937Z,3.90
2017-05-09T06:56:46.320Z,4.75
2017-05-09T06:59:14.652Z,6.43
2017-05-09T07:01:43.013Z,4.58
2017-05-09T07:04:10.619Z,3.18
2017-05-09T07:06:38.931Z,3.28
2017-05-09T07:09:07.444Z,3.92
2017-05-09T07:11:35.699Z,5.25
2017-05-09T07:14:03.347Z,3.97
2017-05-09T07:16:30.835Z,3.33
2017-05-09T07:18:59.109Z,3.27
2017-05-09T07:21:27.496Z,2.68
2017-05-09T07:23:56.871Z,2.50
2017-05-09T07:26:24.729Z,2.08
2017-05-09T07:28:53.069Z,2.35
2017-05-09T07:31:20.891Z,2.22
2017-05-09T07:33:48.776Z,1.70
2017-05-09T07:36:16.296Z,2.02
2017-05-09T07:38:43.804Z,1.77
2017-05-09T07:41:11.387Z,1.78
2017-05-09T07:43:39.662Z,2.37
2017-05-09T07:46:07.200Z,3.07
2017-05-09T07:48:35.592Z,1.70
2017-05-09T07:51:03.924Z,2.52
2017-05-09T07:53:31.416Z,1.93
2017-05-09T07:55:59.044Z,2.18
2017-05-09T07:58:27.814Z,2.15
2017-05-09T08:00:56.148Z,3.43
2017-05-09T08:03:24.538Z,2.10
2017-05-09T08:05:52.196Z,1.90
2017-05-09T08:08:20.956Z,1.77
2017-05-09T08:10:48.514Z,1.98
2017-05-09T08:13:16.199Z,1.80
2017-05-09T08:15:43.744Z,1.58
2017-05-09T08:18:13.724Z,2.65
2017-05-09T08:20:41.243Z,1.33
2017-05-09T08:23:08.887Z,2.15
2017-05-09T08:25:36.527Z,2.27
2017-05-09T08:28:04.028Z,1.82
2017-05-09T08:30:31.567Z,3.00
2017-05-09T08:32:59.836Z,2.93
2017-05-09T08:35:27.355Z,1.87
2017-05-09T08:37:55.655Z,1.22
2017-05-09T08:40:24.369Z,1.30
2017-05-09T08:42:52.691Z,1.53
2017-05-09T08:45:20.980Z,1.30
2017-05-09T08:47:49.235Z,2.20
2017-05-09T08:50:17.773Z,1.13
2017-05-09T08:52:45.259Z,2.22
2017-05-09T08:55:12.803Z,1.60
2017-05-09T08:57:41.063Z,4.58
2017-05-09T09:00:09.671Z,1.93
2017-05-09T09:02:37.167Z,1.30
2017-05-09T09:05:04.968Z,1.45
2017-05-09T09:07:33.328Z,2.05
2017-05-09T09:10:00.867Z,1.68
2017-05-09T09:12:28.568Z,2.20
2017-05-09T09:14:57.134Z,1.63
2017-05-09T09:17:25.729Z,1.38
2017-05-09T09:19:54.005Z,2.32
2017-05-09T09:22:22.279Z,1.85
2017-05-09T09:24:50.131Z,2.28
2017-05-09T09:27:18.916Z,1.92
2017-05-09T09:29:46.495Z,2.42
2017-05-09T09:32:16.203Z,1.85
2017-05-09T09:34:43.747Z,1.48
2017-05-09T09:37:12.320Z,2.07
2017-05-09T09:39:40.596Z,1.87
2017-05-09T09:42:08.160Z,4.58
2017-05-09T09:44:36.463Z,1.10
2017-05-09T09:47:03.954Z,1.53
2017-05-09T09:49:31.763Z,1.00
2017-05-09T09:52:00.078Z,1.57
2017-05-09T09:54:28.513Z,1.25
2017-05-09T09:56:56.768Z,1.28
2017-05-09T09:59:25.112Z,2.52
2017-05-09T10:01:53.363Z,1.40
2017-05-09T10:04:20.903Z,3.77
2017-05-09T10:06:48.430Z,1.20
2017-05-09T10:09:17.073Z,1.72
2017-05-09T10:11:45.368Z,1.20
2017-05-09T10:14:12.919Z,1.57
2017-05-09T10:16:41.462Z,2.10
2017-05-09T10:19:10.896Z,1.65
2017-05-09T10:21:38.699Z,4.12
2017-05-09T10:24:07.044Z,1.53
2017-05-09T10:26:35.455Z,2.22
2017-05-09T10:29:03.730Z,1.20
2017-05-09T10:31:31.332Z,1.02
2017-05-09T10:33:58.895Z,1.20
2017-05-09T10:36:27.254Z,2.43
2017-05-09T10:38:55.195Z,1.58
2017-05-09T10:41:23.456Z,1.23
2017-05-09T10:43:52.667Z,1.90
2017-05-09T10:46:20.224Z,1.47
2017-05-09T10:48:47.829Z,2.32
2017-05-09T10:51:16.092Z,1.78
2017-05-09T10:53:44.417Z,1.12
2017-05-09T10:56:12.850Z,1.50
2017-05-09T10:58:40.417Z,1.45
2017-05-09T11:01:08.750Z,1.12
2017-05-09T11:03:36.267Z,1.67
2017-05-09T11:06:04.518Z,1.18
2017-05-09T11:08:32.960Z,1.37
2017-05-09T11:11:00.703Z,3.45
2017-05-09T11:13:28.279Z,1.70
2017-05-09T11:15:57.499Z,1.87
2017-05-09T11:18:24.990Z,1.42
2017-05-09T11:20:53.322Z,1.47
2017-05-09T11:23:20.846Z,4.22
2017-05-09T11:25:48.615Z,1.58
2017-05-09T11:28:16.136Z,1.88
2017-05-09T11:30:43.697Z,1.48
2017-05-09T11:33:12.043Z,1.77
2017-05-09T11:35:39.555Z,1.80
2017-05-09T11:38:07.173Z,3.53
2017-05-09T11:40:34.743Z,3.85
2017-05-09T11:43:04.183Z,1.22
2017-05-09T11:45:32.647Z,1.25
2017-05-09T11:48:00.163Z,1.78
2017-05-09T11:50:27.983Z,1.47
2017-05-09T11:52:55.544Z,2.17
2017-05-09T11:55:23.088Z,5.40
2017-05-09T11:57:50.649Z,1.55
2017-05-09T12:00:18.156Z,3.03
2017-05-09T12:02:45.720Z,1.38
2017-05-09T12:05:13.992Z,1.43
2017-05-09T12:07:42.276Z,3.75
2017-05-09T12:10:10.543Z,3.28
2017-05-09T12:12:38.064Z,3.87
2017-05-09T12:15:06.360Z,1.72
2017-05-09T12:17:34.269Z,2.28
2017-05-09T12:20:01.755Z,1.62
2017-05-09T12:22:29.271Z,1.25
2017-05-09T12:24:57.067Z,1.65
2017-05-09T12:27:24.612Z,2.47
2017-05-09T12:29:52.268Z,1.43
2017-05-09T12:32:19.884Z,1.55
2017-05-09T12:34:47.371Z,1.30
2017-05-09T12:37:14.896Z,2.25
2017-05-09T12:39:42.447Z,2.30
2017-05-09T12:42:10.041Z,3.55
2017-05-09T12:44:38.291Z,2.05
2017-05-09T12:47:06.740Z,2.13
2017-05-09T12:49:34.768Z,1.53
2017-05-09T12:52:02.366Z,1.52
2017-05-09T12:54:29.963Z,3.00
2017-05-09T12:56:58.297Z,1.80
2017-05-09T12:59:26.549Z,2.48
2017-05-09T13:01:54.119Z,2.53
2017-05-09T13:04:22.424Z,2.17
2017-05-09T13:06:51.671Z,2.72
2017-05-09T13:09:20.644Z,3.77
2017-05-09T13:11:48.965Z,2.47
2017-05-09T13:14:17.230Z,3.58
2017-05-09T13:16:44.801Z,3.93
2017-05-09T13:19:12.466Z,4.38
2017-05-09T13:21:40.004Z,1.97
2017-05-09T13:24:07.646Z,2.47
2017-05-09T13:26:35.248Z,6.18
2017-05-09T13:29:02.781Z,1.90
2017-05-09T13:31:30.588Z,2.15
2017-05-09T13:33:58.858Z,2.88
2017-05-09T13:36:26.380Z,2.08
2017-05-09T13:38:54.247Z,3.15
2017-05-09T13:41:22.008Z,2.27
2017-05-09T13:43:49.608Z,3.57
2017-05-09T13:46:17.883Z,1.88
2017-05-09T13:48:45.599Z,4.52
2017-05-09T13:51:13.131Z,1.68
2017-05-09T13:53:40.824Z,4.53
2017-05-09T13:56:08.509Z,4.35
2017-05-09T13:58:37.983Z,3.02
2017-05-09T14:01:05.476Z,2.47
2017-05-09T14:03:33.055Z,2.30
2017-05-09T14:06:01.338Z,2.68
2017-05-09T14:08:28.949Z,2.27
2017-05-09T14:10:56.456Z,2.12
2017-05-09T14:13:25.075Z,2.10
2017-05-09T14:15:53.653Z,2.47
2017-05-09T14:18:21.167Z,2.18
2017-05-09T14:20:49.752Z,4.30
2017-05-09T14:23:17.395Z,2.42
2017-05-09T14:25:45.927Z,2.70
2017-05-09T14:28:14.511Z,2.28
2017-05-09T14:30:42.507Z,1.90
2017-05-09T14:33:10.467Z,1.80
2017-05-09T14:35:38.034Z,1.88
2017-05-09T14:38:05.690Z,2.38
2017-05-09T14:40:33.234Z,3.57
2017-05-09T14:43:01.179Z,2.68
2017-05-09T14:45:30.493Z,2.40
2017-05-09T14:47:57.991Z,2.03
2017-05-09T14:50:26.344Z,1.90
2017-05-09T14:52:54.295Z,5.17
2017-05-09T14:55:21.815Z,1.85
2017-05-09T14:57:49.360Z,2.88
2017-05-09T15:00:17.678Z,3.43
2017-05-09T15:02:45.159Z,2.15
2017-05-09T15:05:13.828Z,7.78
2017-05-09T15:07:42.089Z,3.15
2017-05-09T15:10:09.956Z,2.20
2017-05-09T15:12:37.624Z,2.33
2017-05-09T15:15:06.486Z,2.88
2017-05-09T15:17:34.000Z,2.20
2017-05-09T15:20:01.659Z,2.13
2017-05-09T15:22:30.821Z,2.27
2017-05-09T15:24:58.871Z,2.92
2017-05-09T15:27:26.783Z,2.78
2017-05-09T15:29:54.323Z,5.78
2017-05-09T15:32:22.911Z,2.48
2017-05-09T15:34:50.457Z,2.62
2017-05-09T15:37:19.141Z,2.40
2017-05-09T15:39:46.727Z,2.87
2017-05-09T15:42:14.327Z,2.25
2017-05-09T15:44:42.680Z,3.03
2017-05-09T15:47:14.895Z,2.70
2017-05-09T15:49:42.568Z,2.80
2017-05-09T15:52:10.289Z,4.05
2017-05-09T15:54:38.591Z,2.33
2017-05-09T15:57:06.172Z,2.30
2017-05-09T15:59:34.116Z,1.93
2017-05-09T16:02:01.713Z,4.73
2017-05-09T16:04:29.973Z,2.00
2017-05-09T16:06:58.629Z,3.50
2017-05-09T16:09:26.123Z,2.15
2017-05-09T16:11:54.683Z,2.93
2017-05-09T16:14:22.952Z,2.47
2017-05-09T16:16:51.519Z,2.40
2017-05-09T16:19:19.195Z,2.13
2017-05-09T16:21:46.680Z,2.58
2017-05-09T16:24:14.503Z,4.52
2017-05-09T16:26:42.011Z,2.82
2017-05-09T16:29:10.674Z,2.50
2017-05-09T16:31:38.159Z,4.42
2017-05-09T16:34:06.847Z,3.15
2017-05-09T16:36:35.100Z,3.80
2017-05-09T16:39:02.652Z,2.75
2017-05-09T16:41:31.037Z,2.93
2017-05-09T16:46:35.719Z,2.40
2017-05-09T16:49:04.311Z,2.25
2017-05-09T16:51:31.801Z,2.48
2017-05-09T16:54:01.029Z,4.65
2017-05-09T16:56:29.324Z,3.43
2017-05-09T16:58:57.671Z,3.08
2017-05-09T17:01:26.049Z,3.02
2017-05-09T17:03:53.873Z,2.88
2017-05-09T17:06:21.365Z,2.50
2017-05-09T17:08:50.497Z,2.40
2017-05-09T17:11:18.835Z,3.43
2017-05-09T17:13:47.173Z,2.88
2017-05-09T17:16:14.760Z,2.18
2017-05-09T17:18:42.650Z,3.15
2017-05-09T17:21:10.247Z,2.77
2017-05-09T17:23:37.775Z,3.10
2017-05-09T17:26:05.270Z,2.30
2017-05-09T17:28:32.955Z,2.63
2017-05-09T17:31:00.523Z,5.88
2017-05-09T17:33:28.804Z,2.13
2017-05-09T17:35:57.328Z,2.65
2017-05-09T17:38:24.815Z,2.27
2017-05-09T17:40:54.492Z,3.00
2017-05-09T17:43:22.916Z,2.20
2017-05-09T17:45:51.215Z,3.50
2017-05-09T17:48:18.830Z,2.70
2017-05-09T17:50:46.362Z,2.65
2017-05-09T17:53:13.951Z,3.48
2017-05-09T17:55:41.468Z,3.43
2017-05-09T17:58:09.014Z,3.05
2017-05-09T18:00:37.307Z,7.08
2017-05-09T18:03:04.855Z,4.22
2017-05-09T18:05:32.339Z,2.73
2017-05-09T18:08:00.182Z,6.65
2017-05-09T18:10:27.972Z,4.25
2017-05-09T18:12:55.489Z,4.10
2017-05-09T18:15:24.907Z,3.32
2017-05-09T18:17:52.557Z,2.90
2017-05-09T18:20:20.859Z,3.75
2017-05-09T18:22:48.465Z,3.75
2017-05-09T18:25:16.743Z,3.05
2017-05-09T18:27:44.274Z,2.77
2017-05-09T18:30:11.911Z,2.53
2017-05-09T18:32:40.236Z,2.60
2017-05-09T18:35:08.328Z,3.27
2017-05-09T18:37:36.103Z,3.27
2017-05-09T18:40:03.610Z,3.13
2017-05-09T18:42:32.706Z,4.78
2017-05-09T18:45:00.959Z,2.72
2017-05-09T18:47:28.672Z,3.18
2017-05-09T18:49:56.167Z,3.67
2017-05-09T18:52:23.679Z,3.30
2017-05-09T18:54:52.052Z,4.32
2017-05-09T18:57:19.738Z,4.02
2017-05-09T18:59:47.335Z,5.10
2017-05-09T19:02:14.895Z,3.67
2017-05-09T19:04:43.356Z,3.87
2017-05-09T19:07:16.610Z,4.63
2017-05-09T19:09:44.651Z,4.15
2017-05-09T19:12:12.509Z,4.40
2017-05-09T19:14:41.118Z,4.55
2017-05-09T19:17:09.596Z,5.13
2017-05-09T19:19:37.216Z,6.50
2017-05-09T19:22:05.058Z,5.43
2017-05-09T19:24:33.490Z,6.82
2017-05-09T19:27:01.986Z,5.60
2017-05-09T19:29:29.767Z,5.07
2017-05-09T19:31:58.095Z,5.67
2017-05-09T19:34:26.850Z,6.35
2017-05-09T19:36:55.405Z,6.60
2017-05-09T19:39:24.094Z,7.18
2017-05-09T19:41:52.526Z,8.10
2017-05-09T19:44:21.385Z,7.40
2017-05-09T19:46:49.819Z,11.85
2017-05-09T19:49:18.270Z,13.05
2017-05-09T19:51:46.932Z,11.95
2017-05-09T19:54:14.514Z,8.05
2017-05-09T19:56:42.967Z,10.68
2017-05-09T19:59:11.001Z,14.07
2017-05-09T20:01:38.756Z,10.82
2017-05-09T20:04:08.411Z,10.28
2017-05-09T20:06:36.118Z,9.80
2017-05-09T20:09:04.012Z,9.75
2017-05-09T20:11:31.821Z,9.85
2017-05-09T20:13:59.419Z,9.37
2017-05-09T20:16:30.846Z,8.82
2017-05-09T20:19:00.508Z,8.62
2017-05-09T20:21:29.398Z,7.95
2017-05-09T20:23:58.549Z,8.78
2017-05-09T20:26:28.566Z,7.77
2017-05-09T20:28:58.358Z,8.25
2017-05-09T20:31:26.837Z,7.60
2017-05-09T20:33:55.337Z,9.70
2017-05-09T20:36:25.998Z,10.45
2017-05-09T20:38:55.168Z,10.53
2017-05-09T20:41:23.432Z,6.52
2017-05-09T20:43:51.956Z,7.92
2017-05-09T20:46:19.471Z,7.92
2017-05-09T20:48:48.064Z,8.27
2017-05-09T20:51:16.676Z,7.52
2017-05-09T20:53:44.655Z,8.30
2017-05-09T20:56:12.256Z,8.73
2017-05-09T20:58:39.748Z,8.23
2017-05-09T21:01:07.313Z,8.03
2017-05-09T21:03:36.685Z,10.02
2017-05-09T21:06:04.271Z,10.15
2017-05-09T21:08:31.937Z,9.98
2017-05-09T21:11:00.439Z,9.12
2017-05-09T21:13:28.723Z,8.72
2017-05-09T21:15:56.981Z,9.62
2017-05-09T21:18:25.265Z,7.76
2017-05-09T21:20:53.876Z,10.82
2017-05-09T21:23:22.207Z,8.03
2017-05-09T21:25:49.753Z,7.97
2017-05-09T21:28:17.270Z,9.22
2017-05-09T21:30:44.801Z,7.78
2017-05-09T21:33:13.111Z,7.98
2017-05-09T21:35:40.689Z,9.55
2017-05-09T21:38:08.253Z,10.27
2017-05-09T21:40:36.096Z,10.48
2017-05-09T21:43:04.779Z,10.87
2017-05-09T21:45:32.268Z,9.47
2017-05-09T21:47:59.824Z,8.83
2017-05-09T21:50:27.856Z,11.08
2017-05-09T21:52:56.145Z,10.30
2017-05-09T21:55:23.887Z,9.67
2017-05-09T21:57:51.433Z,9.63
2017-05-09T22:00:19.023Z,8.62
2017-05-09T22:02:47.325Z,8.63
2017-05-09T22:05:14.909Z,10.80
2017-05-09T22:07:43.219Z,8.40
2017-05-09T22:10:11.777Z,10.18
2017-05-09T22:12:40.156Z,9.77
2017-05-09T22:15:09.408Z,10.05
2017-05-09T22:17:38.439Z,8.35
2017-05-09T22:20:06.231Z,8.32
2017-05-09T22:22:34.095Z,8.17
2017-05-09T22:25:01.633Z,9.63
2017-05-09T22:27:29.136Z,8.15
2017-05-09T22:29:56.775Z,7.98
2017-05-09T22:32:24.409Z,7.82
2017-05-09T22:34:52.696Z,7.75
2017-05-09T22:37:20.187Z,7.15
2017-05-09T22:39:47.734Z,6.42
2017-05-09T22:42:15.251Z,7.58
2017-05-09T22:44:43.596Z,6.37
2017-05-09T22:47:11.091Z,7.18
2017-05-09T22:49:39.415Z,8.13
2017-05-09T22:52:07.608Z,7.75
2017-05-09T22:54:35.980Z,8.87
2017-05-09T22:57:04.236Z,8.63
2017-05-09T22:59:33.591Z,7.87
2017-05-09T23:02:01.189Z,9.18
2017-05-09T23:04:28.743Z,9.45
2017-05-09T23:06:56.303Z,9.78
2017-05-09T23:09:23.834Z,9.97
2017-05-09T23:11:51.332Z,8.47
2017-05-09T23:14:20.405Z,8.23
2017-05-09T23:16:48.683Z,7.70
2017-05-09T23:19:16.660Z,9.42
2017-05-09T23:21:44.312Z,10.07
2017-05-09T23:24:12.056Z,8.15
2017-05-09T23:26:40.435Z,7.75
2017-05-09T23:29:07.965Z,8.65
2017-05-09T23:31:35.529Z,9.08
2017-05-09T23:34:04.055Z,9.42
2017-05-09T23:36:33.317Z,9.28
2017-05-09T23:39:02.680Z,9.50
2017-05-09T23:41:31.112Z,8.62
2017-05-09T23:43:58.887Z,9.60
2017-05-09T23:46:26.556Z,10.45
2017-05-09T23:48:54.061Z,10.40
2017-05-09T23:51:21.632Z,8.28
2017-05-09T23:53:49.177Z,8.43
2017-05-09T23:56:16.695Z,8.80
